Dades meteomassalio
Diari Summary for Octubre 4, 2017 Units:  Metric    English   Both
« Previous Day
Next Day »
Diari Semanal Mensual Anual Personalitzat
  Maxima: Minima: Mijana:
Temperatura: 27.8 °C 8.9 °C 17.7 °C
Rosada: 16.9 °C 7.2 °C 11.8 °C
Humitat: 89 % 42 % 71 %
Velocitat del vent: 20.9 km/h 0.0 km/h 4.3 km/h
Racha vent: 20.9 km/h - -
Vent:- - SSW
Pressio: 1026.6 hPa 1023.2 hPa -
Pluja: 0.0 mm    
Historical Graphs
 
 
Tabular Data for Octubre 4, 2017
Time Temperature Dew Point Pressure Wind Wind Speed Wind Gust Humidity Rainfall Rate (Hourly) solar Conditions
00:03 13.9 °C 10.1 °C 1024.6 hPa Calm     78 % 0.0 mm 0.0 W/m2 CLR
00:04 13.9 °C 10.1 °C 1024.9 hPa Calm     78 % 0.0 mm 0.0 W/m2 CLR
00:09 13.9 °C 10.1 °C 1024.9 hPa Calm     78 % 0.0 mm 0.0 W/m2 CLR
00:14 13.9 °C 10.1 °C 1024.9 hPa Calm     78 % 0.0 mm 0.0 W/m2 CLR
00:19 13.9 °C 10.1 °C 1024.9 hPa Calm     78 % 0.0 mm 0.0 W/m2 CLR
00:24 13.9 °C 10.1 °C 1025.3 hPa Calm     78 % 0.0 mm 0.0 W/m2 CLR
00:29 13.3 °C 9.6 °C 1025.3 hPa Calm     78 % 0.0 mm 0.0 W/m2 CLR
00:34 13.3 °C 9.6 °C 1025.3 hPa Calm     78 % 0.0 mm 0.0 W/m2 CLR
00:39 13.3 °C 9.6 °C 1025.3 hPa Calm     78 % 0.0 mm 0.0 W/m2 CLR
00:44 12.8 °C 9.1 °C 1025.3 hPa Calm     78 % 0.0 mm 0.0 W/m2 CLR
00:49 12.8 °C 9.2 °C 1025.3 hPa Calm     79 % 0.0 mm 0.0 W/m2 CLR
00:54 12.8 °C 9.2 °C 1025.3 hPa Calm     79 % 0.0 mm 0.0 W/m2 CLR
00:59 12.8 °C 9.2 °C 1025.3 hPa Calm     79 % 0.0 mm 0.0 W/m2 CLR
01:04 12.8 °C 9.4 °C 1025.3 hPa Calm     80 % 0.0 mm 0.0 W/m2 CLR
01:09 12.8 °C 9.2 °C 1024.9 hPa Calm     79 % 0.0 mm 0.0 W/m2 CLR
01:14 12.8 °C 9.4 °C 1024.9 hPa Calm     80 % 0.0 mm 0.0 W/m2 CLR
01:19 12.8 °C 9.4 °C 1025.3 hPa Calm     80 % 0.0 mm 0.0 W/m2 CLR
01:24 12.8 °C 9.4 °C 1025.3 hPa Calm     80 % 0.0 mm 0.0 W/m2 CLR
01:29 12.8 °C 9.2 °C 1024.9 hPa Calm     79 % 0.0 mm 0.0 W/m2 CLR
01:34 12.8 °C 9.2 °C 1024.9 hPa Calm     79 % 0.0 mm 0.0 W/m2 CLR
01:39 12.8 °C 9.4 °C 1024.9 hPa Calm     80 % 0.0 mm 0.0 W/m2 CLR
01:44 12.8 °C 9.4 °C 1024.9 hPa Calm     80 % 0.0 mm 0.0 W/m2 CLR
01:49 12.8 °C 9.6 °C 1024.9 hPa Calm     81 % 0.0 mm 0.0 W/m2 CLR
01:59 12.2 °C 9.1 °C 1024.6 hPa Calm     81 % 0.0 mm 0.0 W/m2 CLR
02:04 12.2 °C 9.1 °C 1024.6 hPa Calm     81 % 0.0 mm 0.0 W/m2 CLR
02:09 11.7 °C 8.5 °C 1024.6 hPa Calm     81 % 0.0 mm 0.0 W/m2 CLR
02:15 11.7 °C 8.5 °C 1024.6 hPa Calm     81 % 0.0 mm 0.0 W/m2 CLR
02:20 11.7 °C 8.5 °C 1024.6 hPa Calm     81 % 0.0 mm 0.0 W/m2 CLR
02:25 11.7 °C 8.5 °C 1024.6 hPa Calm     81 % 0.0 mm 0.0 W/m2 CLR
02:30 11.7 °C 8.5 °C 1024.6 hPa Calm     81 % 0.0 mm 0.0 W/m2 CLR
02:35 11.7 °C 8.5 °C 1024.9 hPa Calm     81 % 0.0 mm 0.0 W/m2 CLR
02:37 11.7 °C 8.5 °C 1024.9 hPa Calm     81 % 0.0 mm 0.0 W/m2 CLR
02:42 11.7 °C 8.3 °C 1024.9 hPa Calm     80 % 0.0 mm 0.0 W/m2 CLR
02:47 11.7 °C 8.3 °C 1024.9 hPa Calm     80 % 0.0 mm 0.0 W/m2 CLR
02:52 11.7 °C 8.3 °C 1024.9 hPa Calm     80 % 0.0 mm 0.0 W/m2 CLR
03:02 11.7 °C 8.9 °C 1024.9 hPa Calm     83 % 0.0 mm 0.0 W/m2 CLR
03:07 11.1 °C 8.2 °C 1024.9 hPa Calm     82 % 0.0 mm 0.0 W/m2 CLR
03:12 11.1 °C 8.2 °C 1024.9 hPa Calm     82 % 0.0 mm 0.0 W/m2 CLR
03:17 11.1 °C 7.9 °C 1024.9 hPa Calm     81 % 0.0 mm 0.0 W/m2 CLR
03:22 11.1 °C 7.9 °C 1024.9 hPa Calm     81 % 0.0 mm 0.0 W/m2 CLR
03:27 11.1 °C 7.9 °C 1024.9 hPa Calm     81 % 0.0 mm 0.0 W/m2 CLR
03:32 11.1 °C 8.2 °C 1024.9 hPa Calm     82 % 0.0 mm 0.0 W/m2 CLR
03:37 11.1 °C 8.2 °C 1024.9 hPa Calm     82 % 0.0 mm 0.0 W/m2 CLR
03:42 11.1 °C 8.3 °C 1024.9 hPa Calm     83 % 0.0 mm 0.0 W/m2 CLR
03:47 11.1 °C 8.3 °C 1024.9 hPa Calm     83 % 0.0 mm 0.0 W/m2 CLR
03:52 10.6 °C 7.8 °C 1024.9 hPa Calm     83 % 0.0 mm 0.0 W/m2 CLR
03:57 10.6 °C 7.9 °C 1024.9 hPa Calm     84 % 0.0 mm 0.0 W/m2 CLR
04:02 10.6 °C 7.8 °C 1024.9 hPa Calm     83 % 0.0 mm 0.0 W/m2 CLR
04:07 10.6 °C 7.9 °C 1024.9 hPa Calm     84 % 0.0 mm 0.0 W/m2 CLR
04:12 10.6 °C 7.9 °C 1024.9 hPa Calm     84 % 0.0 mm 0.0 W/m2 CLR
04:17 10.6 °C 7.9 °C 1024.9 hPa Calm     84 % 0.0 mm 0.0 W/m2 CLR
04:22 10.6 °C 7.9 °C 1024.9 hPa Calm     84 % 0.0 mm 0.0 W/m2 CLR
04:27 10.6 °C 7.9 °C 1024.9 hPa Calm     84 % 0.0 mm 0.0 W/m2 CLR
04:32 10.6 °C 7.9 °C 1024.9 hPa Calm     84 % 0.0 mm 0.0 W/m2 CLR
04:37 10.6 °C 8.1 °C 1024.9 hPa Calm     85 % 0.0 mm 0.0 W/m2 CLR
04:42 10.6 °C 7.9 °C 1025.3 hPa Calm     84 % 0.0 mm 0.0 W/m2 CLR
04:47 10.6 °C 8.1 °C 1025.3 hPa Calm     85 % 0.0 mm 0.0 W/m2 CLR
04:52 10.6 °C 8.3 °C 1025.3 hPa Calm     86 % 0.0 mm 0.0 W/m2 CLR
04:57 11.1 °C 8.8 °C 1025.3 hPa Calm     86 % 0.0 mm 0.0 W/m2 CLR
05:02 11.1 °C 8.8 °C 1025.3 hPa Calm     86 % 0.0 mm 0.0 W/m2 CLR
05:07 11.1 °C 8.8 °C 1025.3 hPa Calm     86 % 0.0 mm 0.0 W/m2 CLR
05:12 10.6 °C 8.3 °C 1025.3 hPa Calm     86 % 0.0 mm 0.0 W/m2 CLR
05:17 10.6 °C 8.3 °C 1025.3 hPa Calm     86 % 0.0 mm 0.0 W/m2 CLR
05:22 10.6 °C 8.3 °C 1025.3 hPa Calm     86 % 0.0 mm 0.0 W/m2 CLR
05:27 10.6 °C 8.3 °C 1025.3 hPa Calm     86 % 0.0 mm 0.0 W/m2 CLR
05:32 10.6 °C 8.5 °C 1025.3 hPa Calm     87 % 0.0 mm 0.0 W/m2 CLR
05:37 10.6 °C 8.5 °C 1025.3 hPa Calm     87 % 0.0 mm 0.0 W/m2 CLR
05:43 10.0 °C 7.9 °C 1025.3 hPa Calm     87 % 0.0 mm 0.0 W/m2 CLR
05:48 10.0 °C 7.9 °C 1025.3 hPa Calm     87 % 0.0 mm 0.0 W/m2 CLR
05:53 10.0 °C 7.9 °C 1025.3 hPa Calm     87 % 0.0 mm 0.0 W/m2 CLR
05:58 10.0 °C 7.9 °C 1025.6 hPa Calm     87 % 0.0 mm 0.0 W/m2 CLR
06:03 10.0 °C 7.9 °C 1025.6 hPa Calm     87 % 0.0 mm 0.0 W/m2 CLR
06:08 10.0 °C 7.9 °C 1026.0 hPa Calm     87 % 0.0 mm 0.0 W/m2 CLR
06:13 10.0 °C 7.9 °C 1026.0 hPa Calm     87 % 0.0 mm 0.0 W/m2 CLR
06:18 10.0 °C 7.9 °C 1026.0 hPa Calm     87 % 0.0 mm 0.0 W/m2 CLR
06:23 10.0 °C 8.1 °C 1026.0 hPa Calm     88 % 0.0 mm 0.0 W/m2 CLR
06:28 10.6 °C 8.7 °C 1026.0 hPa Calm     88 % 0.0 mm 0.0 W/m2 CLR
06:33 10.6 °C 8.7 °C 1026.0 hPa Calm     88 % 0.0 mm 0.0 W/m2 CLR
06:38 10.0 °C 8.1 °C 1026.3 hPa Calm     88 % 0.0 mm 0.0 W/m2 CLR
06:43 10.0 °C 8.1 °C 1026.3 hPa Calm     88 % 0.0 mm 0.0 W/m2 CLR
06:48 10.0 °C 7.9 °C 1026.3 hPa Calm     87 % 0.0 mm 0.0 W/m2 CLR
06:53 9.4 °C 7.4 °C 1026.3 hPa Calm     87 % 0.0 mm 0.0 W/m2 CLR
06:58 9.4 °C 7.4 °C 1026.3 hPa Calm     87 % 0.0 mm 0.0 W/m2 CLR
07:03 9.4 °C 7.4 °C 1026.3 hPa Calm     87 % 0.0 mm 0.0 W/m2 CLR
07:08 9.4 °C 7.6 °C 1026.6 hPa Calm     88 % 0.0 mm 0.0 W/m2 CLR
07:18 9.4 °C 7.6 °C 1026.6 hPa Calm     88 % 0.0 mm 0.0 W/m2 CLR
07:23 9.4 °C 7.4 °C 1026.6 hPa Calm     87 % 0.0 mm 0.0 W/m2 CLR
07:28 9.4 °C 7.4 °C 1026.6 hPa Calm     87 % 0.0 mm 0.0 W/m2 CLR
07:33 9.4 °C 7.6 °C 1026.6 hPa Calm     88 % 0.0 mm 0.0 W/m2 CLR
07:43 9.4 °C 7.6 °C 1026.6 hPa Calm     88 % 0.0 mm 0.0 W/m2 CLR
07:49 9.4 °C 7.6 °C 1026.6 hPa Calm     88 % 0.0 mm 0.0 W/m2 CLR
07:54 9.4 °C 7.6 °C 1026.3 hPa Calm     88 % 0.0 mm 0.0 W/m2 OVC
07:59 9.4 °C 7.7 °C 1026.3 hPa Calm     89 % 0.0 mm 5.0 W/m2 OVC
08:04 8.9 °C 7.2 °C 1026.6 hPa Calm     89 % 0.0 mm 7.0 W/m2 BKN
08:09 8.9 °C 7.2 °C 1026.6 hPa Calm     89 % 0.0 mm 9.0 W/m2 BKN
08:14 8.9 °C 7.2 °C 1026.6 hPa Calm     89 % 0.0 mm 12.0 W/m2 BKN
08:19 8.9 °C 7.2 °C 1026.3 hPa Calm     89 % 0.0 mm 14.0 W/m2 BKN
08:24 8.9 °C 7.2 °C 1026.3 hPa Calm     89 % 0.0 mm 18.0 W/m2 BKN
08:29 9.4 °C 7.7 °C 1026.6 hPa Calm     89 % 0.0 mm 25.0 W/m2 BKN
08:34 9.4 °C 7.7 °C 1026.6 hPa Calm     89 % 0.0 mm 35.0 W/m2 BKN
08:39 9.4 °C 7.7 °C 1026.6 hPa Calm     89 % 0.0 mm 46.0 W/m2 SCT
08:44 10.0 °C 8.3 °C 1026.6 hPa Calm     89 % 0.0 mm 47.0 W/m2 SCT
08:49 10.0 °C 8.1 °C 1026.6 hPa Calm     88 % 0.0 mm 63.0 W/m2 SCT
08:54 10.6 °C 8.5 °C 1026.6 hPa Calm     87 % 0.0 mm 60.0 W/m2 SCT
08:59 10.6 °C 8.3 °C 1026.6 hPa Calm     86 % 0.0 mm 69.0 W/m2 FEW
09:04 10.6 °C 8.1 °C 1026.6 hPa Calm     85 % 0.0 mm 116.0 W/m2 FEW
09:09 11.1 °C 8.7 °C 1026.6 hPa Calm     85 % 0.0 mm 134.0 W/m2 FEW
09:14 11.1 °C 8.5 °C 1026.6 hPa Calm     84 % 0.0 mm 84.0 W/m2 CLR
09:16 11.1 °C 8.5 °C 1026.6 hPa Calm     84 % 0.0 mm 156.0 W/m2 CLR
09:21 11.7 °C 9.1 °C 1026.6 hPa Calm     84 % 0.0 mm 174.0 W/m2 CLR
09:26 11.7 °C 8.9 °C 1026.6 hPa Calm     83 % 0.0 mm 192.0 W/m2 CLR
09:31 12.2 °C 9.2 °C 1026.6 hPa Calm     82 % 0.0 mm 211.0 W/m2 CLR
09:36 12.2 °C 8.9 °C 1026.6 hPa Calm     80 % 0.0 mm 229.0 W/m2 CLR
09:41 12.8 °C 9.2 °C 1026.6 hPa Calm     79 % 0.0 mm 244.0 W/m2 CLR
09:46 13.3 °C 9.8 °C 1026.6 hPa Calm     79 % 0.0 mm 258.0 W/m2 CLR
09:51 13.9 °C 10.1 °C 1026.6 hPa Calm     78 % 0.0 mm 276.0 W/m2 CLR
09:56 14.4 °C 10.4 °C 1026.6 hPa Calm     77 % 0.0 mm 292.0 W/m2 CLR
10:01 15.0 °C 10.8 °C 1026.6 hPa Calm     76 % 0.0 mm 195.0 W/m2 CLR
10:06 15.6 °C 11.2 °C 1026.6 hPa Calm     75 % 0.0 mm 281.0 W/m2 CLR
10:11 16.1 °C 11.7 °C 1026.6 hPa Calm     75 % 0.0 mm 341.0 W/m2 CLR
10:16 16.7 °C 12.0 °C 1026.6 hPa Calm     74 % 0.0 mm 352.0 W/m2 CLR
10:21 17.2 °C 12.6 °C 1026.6 hPa Calm     74 % 0.0 mm 362.0 W/m2 CLR
10:26 17.8 °C 12.9 °C 1026.6 hPa Calm     73 % 0.0 mm 364.0 W/m2 CLR
10:31 17.8 °C 12.7 °C 1026.6 hPa Calm     72 % 0.0 mm 387.0 W/m2 CLR
10:36 18.3 °C 13.2 °C 1026.6 hPa Calm     72 % 0.0 mm 404.0 W/m2 CLR
10:41 18.9 °C 13.7 °C 1026.6 hPa Calm     72 % 0.0 mm 420.0 W/m2 CLR
10:42 18.9 °C 13.7 °C 1026.6 hPa Calm     72 % 0.0 mm 406.0 W/m2 CLR
10:47 18.9 °C 13.3 °C 1026.6 hPa Calm     70 % 0.0 mm 415.0 W/m2 CLR
10:52 19.4 °C 13.4 °C 1026.6 hPa Calm     68 % 0.0 mm 450.0 W/m2 CLR
10:57 19.4 °C 13.4 °C 1026.6 hPa Calm     68 % 0.0 mm 457.0 W/m2 CLR
11:02 19.4 °C 13.2 °C 1026.6 hPa Calm     67 % 0.0 mm 473.0 W/m2 CLR
11:07 20.0 °C 13.4 °C 1026.6 hPa Calm     66 % 0.0 mm 485.0 W/m2 CLR
11:12 20.0 °C 13.2 °C 1026.6 hPa Calm     65 % 0.0 mm 499.0 W/m2 CLR
11:17 20.6 °C 13.3 °C 1026.6 hPa Calm     63 % 0.0 mm 510.0 W/m2 CLR
11:22 20.6 °C 13.3 °C 1026.6 hPa Calm     63 % 0.0 mm 519.0 W/m2 CLR
11:27 20.6 °C 13.3 °C 1026.6 hPa Calm     63 % 0.0 mm 529.0 W/m2 CLR
11:32 21.1 °C 13.8 °C 1026.6 hPa Calm     63 % 0.0 mm 538.0 W/m2 CLR
11:37 21.7 °C 14.1 °C 1026.6 hPa Calm     62 % 0.0 mm 552.0 W/m2 CLR
11:42 21.7 °C 14.1 °C 1026.6 hPa Calm     62 % 0.0 mm 561.0 W/m2 CLR
11:47 22.2 °C 14.3 °C 1026.6 hPa Calm     61 % 0.0 mm 571.0 W/m2 CLR
11:52 22.2 °C 14.6 °C 1026.6 hPa North 3.2 km/h 3.2 km/h 62 % 0.0 mm 582.0 W/m2 CLR
11:57 22.2 °C 14.1 °C 1026.6 hPa Calm     60 % 0.0 mm 589.0 W/m2 CLR
12:02 22.8 °C 14.6 °C 1026.3 hPa WNW 1.9 km/h   60 % 0.0 mm 599.0 W/m2 CLR
12:07 22.8 °C 14.6 °C 1026.3 hPa NNW 14.8 km/h 14.8 km/h 60 % 0.0 mm 606.0 W/m2 CLR
12:12 23.3 °C 15.1 °C 1026.3 hPa North 3.7 km/h 3.7 km/h 60 % 0.0 mm 617.0 W/m2 CLR
12:17 23.3 °C 14.9 °C 1026.3 hPa NW 8.0 km/h 8.0 km/h 59 % 0.0 mm 628.0 W/m2 CLR
12:22 23.3 °C 14.9 °C 1026.3 hPa NNW 14.8 km/h 14.8 km/h 59 % 0.0 mm 624.0 W/m2 CLR
12:27 23.9 °C 15.1 °C 1026.3 hPa NW 13.0 km/h 13.0 km/h 58 % 0.0 mm 636.0 W/m2 CLR
12:32 23.9 °C 15.1 °C 1026.3 hPa WNW 5.6 km/h 5.6 km/h 58 % 0.0 mm 643.0 W/m2 CLR
12:37 24.4 °C 15.7 °C 1026.3 hPa NW 13.0 km/h 13.0 km/h 58 % 0.0 mm 652.0 W/m2 CLR
12:42 24.4 °C 15.4 °C 1026.3 hPa NNW 6.4 km/h 6.4 km/h 57 % 0.0 mm 656.0 W/m2 CLR
12:47 24.4 °C 14.8 °C 1026.3 hPa NNW 14.8 km/h 14.8 km/h 55 % 0.0 mm 659.0 W/m2 CLR
12:52 24.4 °C 14.8 °C 1026.3 hPa North 7.4 km/h 7.4 km/h 55 % 0.0 mm 663.0 W/m2 CLR
12:57 24.4 °C 15.1 °C 1026.3 hPa NNW 14.5 km/h 14.5 km/h 56 % 0.0 mm 666.0 W/m2 CLR
13:02 24.4 °C 14.8 °C 1026.0 hPa NNW 17.7 km/h 17.7 km/h 55 % 0.0 mm 673.0 W/m2 CLR
13:07 24.4 °C 14.8 °C 1026.0 hPa NW 9.3 km/h 9.3 km/h 55 % 0.0 mm 670.0 W/m2 CLR
13:12 25.0 °C 15.3 °C 1026.0 hPa NW 18.5 km/h 18.5 km/h 55 % 0.0 mm 680.0 W/m2 CLR
13:17 25.0 °C 15.1 °C 1026.0 hPa WNW 18.5 km/h 18.5 km/h 54 % 0.0 mm 684.0 W/m2 CLR
13:22 25.0 °C 15.3 °C 1026.0 hPa NW 8.0 km/h 8.2 km/h 55 % 0.0 mm 684.0 W/m2 CLR
13:27 25.0 °C 15.1 °C 1026.0 hPa NNW 9.7 km/h 10.3 km/h 54 % 0.0 mm 682.0 W/m2 CLR
13:32 25.6 °C 15.6 °C 1025.6 hPa WNW 13.0 km/h 13.0 km/h 54 % 0.0 mm 687.0 W/m2 CLR
13:37 25.6 °C 15.6 °C 1025.6 hPa NNW 14.8 km/h 14.8 km/h 54 % 0.0 mm 693.0 W/m2 CLR
13:42 25.6 °C 15.6 °C 1025.6 hPa NNW 17.7 km/h 17.7 km/h 54 % 0.0 mm 691.0 W/m2 CLR
13:47 25.6 °C 15.3 °C 1025.6 hPa NNW 14.8 km/h 14.8 km/h 53 % 0.0 mm 693.0 W/m2 CLR
13:52 25.6 °C 15.3 °C 1025.3 hPa NW 5.6 km/h   53 % 0.0 mm 696.0 W/m2 CLR
13:53 25.6 °C 15.3 °C 1025.3 hPa NW 5.6 km/h 5.6 km/h 53 % 0.0 mm 694.0 W/m2 CLR
13:58 25.6 °C 14.9 °C 1025.3 hPa NNW 16.7 km/h 16.7 km/h 52 % 0.0 mm 694.0 W/m2 CLR
14:03 25.6 °C 14.9 °C 1025.3 hPa NW 16.7 km/h 16.7 km/h 52 % 0.0 mm 689.0 W/m2 CLR
14:08 26.1 °C 15.5 °C 1025.3 hPa WNW 13.0 km/h 13.0 km/h 52 % 0.0 mm 689.0 W/m2 CLR
14:13 26.1 °C 15.2 °C 1025.3 hPa NNW 11.1 km/h 11.1 km/h 51 % 0.0 mm 689.0 W/m2 CLR
14:18 26.1 °C 14.9 °C 1024.9 hPa WNW 7.4 km/h   50 % 0.0 mm 684.0 W/m2 CLR
14:23 26.7 °C 15.4 °C 1024.9 hPa North 13.0 km/h 13.0 km/h 50 % 0.0 mm 684.0 W/m2 CLR
14:28 26.1 °C 14.9 °C 1024.9 hPa West 13.0 km/h 13.0 km/h 50 % 0.0 mm 680.0 W/m2 CLR
14:33 26.7 °C 15.4 °C 1024.9 hPa NW 20.9 km/h 20.9 km/h 50 % 0.0 mm 673.0 W/m2 CLR
14:38 26.7 °C 15.4 °C 1024.9 hPa NNW 11.1 km/h 11.1 km/h 50 % 0.0 mm 670.0 W/m2 CLR
14:43 26.7 °C 15.4 °C 1024.9 hPa WNW 16.7 km/h 16.7 km/h 50 % 0.0 mm 666.0 W/m2 CLR
14:48 26.7 °C 15.1 °C 1024.6 hPa WNW 18.5 km/h 18.5 km/h 49 % 0.0 mm 663.0 W/m2 CLR
14:53 26.7 °C 15.1 °C 1024.6 hPa NW 16.7 km/h 16.7 km/h 49 % 0.0 mm 663.0 W/m2 CLR
14:58 27.2 °C 15.3 °C 1024.6 hPa NW 13.0 km/h 13.0 km/h 48 % 0.0 mm 652.0 W/m2 CLR
15:03 27.2 °C 15.3 °C 1024.6 hPa West 7.4 km/h 7.4 km/h 48 % 0.0 mm 650.0 W/m2 CLR
15:08 27.2 °C 15.3 °C 1024.3 hPa WNW 19.3 km/h 19.3 km/h 48 % 0.0 mm 645.0 W/m2 CLR
15:13 27.2 °C 15.3 °C 1024.3 hPa WNW 16.7 km/h 16.7 km/h 48 % 0.0 mm 640.0 W/m2 CLR
15:18 27.2 °C 14.9 °C 1024.3 hPa North 18.5 km/h 18.5 km/h 47 % 0.0 mm 633.0 W/m2 CLR
15:23 27.2 °C 14.9 °C 1024.3 hPa North 3.2 km/h 3.2 km/h 47 % 0.0 mm 624.0 W/m2 CLR
15:28 27.2 °C 14.6 °C 1024.3 hPa NNE 13.0 km/h 13.0 km/h 46 % 0.0 mm 587.0 W/m2 CLR
15:33 27.2 °C 14.6 °C 1024.3 hPa West 14.8 km/h 14.8 km/h 46 % 0.0 mm 610.0 W/m2 CLR
15:38 27.8 °C 15.4 °C 1024.3 hPa NNW 12.9 km/h 12.9 km/h 47 % 0.0 mm 599.0 W/m2 CLR
15:43 27.2 °C 14.6 °C 1023.9 hPa NW 11.1 km/h 11.1 km/h 46 % 0.0 mm 591.0 W/m2 CLR
15:48 27.2 °C 14.3 °C 1023.9 hPa WNW 3.7 km/h   45 % 0.0 mm 582.0 W/m2 CLR
15:49 27.2 °C 14.3 °C 1023.9 hPa NW 8.0 km/h 8.0 km/h 45 % 0.0 mm 582.0 W/m2 CLR
15:54 27.2 °C 14.3 °C 1023.9 hPa NNE 13.0 km/h 13.0 km/h 45 % 0.0 mm 573.0 W/m2 CLR
15:59 27.2 °C 14.3 °C 1023.9 hPa NW 9.7 km/h 9.7 km/h 45 % 0.0 mm 564.0 W/m2 CLR
16:04 27.2 °C 13.9 °C 1023.9 hPa WNW 13.0 km/h 13.0 km/h 44 % 0.0 mm 559.0 W/m2 CLR
16:09 27.2 °C 13.9 °C 1023.9 hPa WNW 9.3 km/h 9.3 km/h 44 % 0.0 mm 541.0 W/m2 CLR
16:14 27.8 °C 14.4 °C 1023.9 hPa NNW 18.5 km/h 18.5 km/h 44 % 0.0 mm 533.0 W/m2 CLR
16:19 27.8 °C 14.8 °C 1023.9 hPa WNW 7.4 km/h 7.4 km/h 45 % 0.0 mm 524.0 W/m2 CLR
16:24 27.8 °C 14.1 °C 1023.9 hPa NNW 16.7 km/h 16.7 km/h 43 % 0.0 mm 515.0 W/m2 CLR
16:29 27.8 °C 14.1 °C 1023.9 hPa NNW 9.7 km/h 9.7 km/h 43 % 0.0 mm 508.0 W/m2 CLR
16:34 27.8 °C 14.4 °C 1023.6 hPa Calm     44 % 0.0 mm 455.0 W/m2 CLR
16:39 27.8 °C 14.1 °C 1023.6 hPa NNW 5.6 km/h 5.6 km/h 43 % 0.0 mm 436.0 W/m2 CLR
16:44 27.8 °C 14.1 °C 1023.6 hPa NW 13.0 km/h 13.0 km/h 43 % 0.0 mm 471.0 W/m2 CLR
16:49 27.2 °C 13.2 °C 1023.6 hPa West 4.8 km/h 4.8 km/h 42 % 0.0 mm 457.0 W/m2 CLR
16:54 27.8 °C 13.7 °C 1023.6 hPa WNW 13.0 km/h 13.0 km/h 42 % 0.0 mm 446.0 W/m2 CLR
16:59 27.8 °C 14.4 °C 1023.6 hPa North 9.7 km/h 9.7 km/h 44 % 0.0 mm 431.0 W/m2 CLR
17:04 27.2 °C 13.9 °C 1023.6 hPa West 7.4 km/h 7.4 km/h 44 % 0.0 mm 406.0 W/m2 CLR
17:09 27.2 °C 14.3 °C 1023.6 hPa NNW 18.5 km/h 18.5 km/h 45 % 0.0 mm 404.0 W/m2 CLR
17:14 27.2 °C 15.3 °C 1023.6 hPa NNE 11.3 km/h 11.3 km/h 48 % 0.0 mm 396.0 W/m2 CLR
17:19 27.2 °C 15.6 °C 1023.6 hPa NNE 13.0 km/h 13.0 km/h 49 % 0.0 mm 387.0 W/m2 CLR
17:24 27.2 °C 16.5 °C 1023.6 hPa NNW 16.7 km/h 16.7 km/h 52 % 0.0 mm 383.0 W/m2 CLR
17:29 27.2 °C 16.5 °C 1023.2 hPa North 1.9 km/h   52 % 0.0 mm 367.0 W/m2 CLR
17:34 27.2 °C 16.5 °C 1023.2 hPa NE 14.8 km/h 14.8 km/h 52 % 0.0 mm 346.0 W/m2 CLR
17:39 27.2 °C 16.5 °C 1023.2 hPa NE 9.3 km/h 9.3 km/h 52 % 0.0 mm 302.0 W/m2 CLR
17:44 27.2 °C 16.5 °C 1023.2 hPa NE 6.4 km/h 6.4 km/h 52 % 0.0 mm 260.0 W/m2 CLR
17:49 27.2 °C 16.2 °C 1023.2 hPa NE 5.6 km/h 5.6 km/h 51 % 0.0 mm 248.0 W/m2 CLR
17:54 27.2 °C 16.8 °C 1023.2 hPa East 18.5 km/h 18.5 km/h 53 % 0.0 mm 199.0 W/m2 CLR
17:59 26.7 °C 16.9 °C 1023.2 hPa ENE 14.8 km/h 14.8 km/h 55 % 0.0 mm 278.0 W/m2 CLR
18:04 26.7 °C 16.9 °C 1023.2 hPa ENE 16.7 km/h 16.7 km/h 55 % 0.0 mm 267.0 W/m2 CLR
18:09 26.1 °C 16.7 °C 1023.2 hPa NE 14.8 km/h 14.8 km/h 56 % 0.0 mm 237.0 W/m2 CLR
18:14 26.1 °C 16.7 °C 1023.2 hPa NNE 11.1 km/h 11.1 km/h 56 % 0.0 mm 156.0 W/m2 CLR
18:19 25.6 °C 16.4 °C 1023.2 hPa NE 8.0 km/h 8.0 km/h 57 % 0.0 mm 151.0 W/m2 CLR
18:24 25.6 °C 16.4 °C 1023.2 hPa NE 9.7 km/h 9.7 km/h 57 % 0.0 mm 76.0 W/m2 CLR
18:29 25.6 °C 16.7 °C 1023.2 hPa NE 11.3 km/h 11.3 km/h 58 % 0.0 mm 95.0 W/m2 CLR
18:34 25.0 °C 16.2 °C 1023.2 hPa NE 16.7 km/h 16.7 km/h 58 % 0.0 mm 51.0 W/m2 FEW
18:39 25.0 °C 16.2 °C 1023.2 hPa NE 13.0 km/h 13.0 km/h 58 % 0.0 mm 37.0 W/m2 BKN
18:44 24.4 °C 16.2 °C 1023.2 hPa NE 18.5 km/h 18.5 km/h 60 % 0.0 mm 37.0 W/m2 BKN
18:49 24.4 °C 16.4 °C 1023.2 hPa NNE 11.3 km/h 11.3 km/h 61 % 0.0 mm 28.0 W/m2 BKN
18:54 23.9 °C 16.2 °C 1023.2 hPa NE 16.7 km/h 16.7 km/h 62 % 0.0 mm 23.0 W/m2 BKN
18:59 23.9 °C 16.2 °C 1023.6 hPa NE 9.7 km/h 9.7 km/h 62 % 0.0 mm 23.0 W/m2 BKN
19:04 23.3 °C 15.9 °C 1023.6 hPa NE 14.8 km/h 14.8 km/h 63 % 0.0 mm 28.0 W/m2 BKN
19:09 23.3 °C 15.9 °C 1023.6 hPa ENE 7.4 km/h 7.4 km/h 63 % 0.0 mm 19.0 W/m2 BKN
19:14 22.8 °C 15.6 °C 1023.6 hPa NE 9.3 km/h 9.3 km/h 64 % 0.0 mm 14.0 W/m2 BKN
19:19 22.8 °C 15.8 °C 1023.6 hPa ENE 8.0 km/h 8.0 km/h 65 % 0.0 mm 12.0 W/m2 BKN
19:24 22.2 °C 15.3 °C 1023.9 hPa Calm   2.7 km/h 65 % 0.0 mm 11.0 W/m2 BKN
19:30 22.2 °C 15.6 °C 1023.6 hPa Calm   1.1 km/h 66 % 0.0 mm 7.0 W/m2 BKN
19:35 22.2 °C 15.6 °C 1023.6 hPa ENE 13.0 km/h 13.0 km/h 66 % 0.0 mm 0.0 W/m2 OVC
19:40 21.7 °C 15.3 °C 1023.6 hPa ENE 14.5 km/h 14.5 km/h 67 % 0.0 mm 0.0 W/m2 OVC
19:45 21.7 °C 15.5 °C 1023.6 hPa ENE 14.8 km/h 14.8 km/h 68 % 0.0 mm 0.0 W/m2 OVC
19:50 21.1 °C 15.0 °C 1023.6 hPa ENE 16.1 km/h 16.1 km/h 68 % 0.0 mm 0.0 W/m2 CLR
19:55 21.1 °C 15.2 °C 1023.9 hPa ENE 14.8 km/h 14.8 km/h 69 % 0.0 mm 0.0 W/m2 CLR
20:00 21.7 °C 15.7 °C 1023.9 hPa ENE 7.4 km/h 7.4 km/h 69 % 0.0 mm 0.0 W/m2 CLR
20:05 21.1 °C 15.2 °C 1023.9 hPa East 6.4 km/h 7.1 km/h 69 % 0.0 mm 0.0 W/m2 CLR
20:10 21.1 °C 15.2 °C 1023.9 hPa Calm     69 % 0.0 mm 0.0 W/m2 CLR
20:15 20.6 °C 14.9 °C 1023.9 hPa ENE 6.4 km/h 6.4 km/h 70 % 0.0 mm 0.0 W/m2 CLR
20:20 20.0 °C 14.3 °C 1023.9 hPa Calm     70 % 0.0 mm 0.0 W/m2 CLR
20:25 19.4 °C 14.1 °C 1024.3 hPa East 8.0 km/h 8.0 km/h 71 % 0.0 mm 0.0 W/m2 CLR
20:30 19.4 °C 14.1 °C 1024.3 hPa East 11.1 km/h 11.1 km/h 71 % 0.0 mm 0.0 W/m2 CLR
20:35 19.4 °C 14.1 °C 1024.3 hPa ENE 14.8 km/h 14.8 km/h 71 % 0.0 mm 0.0 W/m2 CLR
20:40 18.9 °C 13.5 °C 1024.3 hPa ENE 11.3 km/h 11.3 km/h 71 % 0.0 mm 0.0 W/m2 CLR
20:45 18.9 °C 13.7 °C 1024.3 hPa ENE 5.6 km/h 5.6 km/h 72 % 0.0 mm 0.0 W/m2 CLR
20:50 18.9 °C 13.7 °C 1024.3 hPa ENE 3.2 km/h 3.2 km/h 72 % 0.0 mm 0.0 W/m2 CLR
20:55 18.3 °C 13.2 °C 1024.3 hPa ENE 5.6 km/h 5.6 km/h 72 % 0.0 mm 0.0 W/m2 CLR
21:00 18.3 °C 13.4 °C 1024.3 hPa Calm     73 % 0.0 mm 0.0 W/m2 CLR
21:05 17.8 °C 12.9 °C 1024.3 hPa Calm     73 % 0.0 mm 0.0 W/m2 CLR
21:10 17.8 °C 13.1 °C 1024.6 hPa Calm     74 % 0.0 mm 0.0 W/m2 CLR
21:15 17.2 °C 12.6 °C 1024.6 hPa Calm     74 % 0.0 mm 0.0 W/m2 CLR
21:30 16.7 °C 12.0 °C 1024.6 hPa Calm     74 % 0.0 mm 0.0 W/m2 CLR
21:35 16.7 °C 12.2 °C 1024.6 hPa Calm     75 % 0.0 mm 0.0 W/m2 CLR
21:40 16.7 °C 12.4 °C 1024.6 hPa Calm     76 % 0.0 mm 0.0 W/m2 CLR
21:45 16.1 °C 11.7 °C 1024.6 hPa Calm     75 % 0.0 mm 0.0 W/m2 CLR
21:50 16.1 °C 11.9 °C 1024.6 hPa Calm     76 % 0.0 mm 0.0 W/m2 CLR
21:55 16.1 °C 11.9 °C 1024.6 hPa Calm     76 % 0.0 mm 0.0 W/m2 CLR
22:00 16.1 °C 11.9 °C 1024.6 hPa Calm     76 % 0.0 mm 0.0 W/m2 CLR
22:05 16.1 °C 12.1 °C 1024.9 hPa Calm     77 % 0.0 mm 0.0 W/m2 CLR
22:10 16.1 °C 12.1 °C 1024.6 hPa Calm     77 % 0.0 mm 0.0 W/m2 CLR
22:15 15.6 °C 11.6 °C 1024.9 hPa Calm     77 % 0.0 mm 0.0 W/m2 CLR
22:20 15.6 °C 11.7 °C 1024.9 hPa Calm     78 % 0.0 mm 0.0 W/m2 CLR
22:25 15.6 °C 11.7 °C 1024.9 hPa Calm     78 % 0.0 mm 0.0 W/m2 CLR
22:30 15.6 °C 11.6 °C 1024.9 hPa Calm     77 % 0.0 mm 0.0 W/m2 CLR
22:35 15.6 °C 11.7 °C 1024.9 hPa Calm     78 % 0.0 mm 0.0 W/m2 CLR
22:40 15.0 °C 11.2 °C 1024.9 hPa Calm     78 % 0.0 mm 0.0 W/m2 CLR
22:45 15.0 °C 11.4 °C 1024.9 hPa Calm     79 % 0.0 mm 0.0 W/m2 CLR
22:50 15.0 °C 11.4 °C 1024.9 hPa Calm     79 % 0.0 mm 0.0 W/m2 CLR
22:55 15.0 °C 11.4 °C 1024.9 hPa Calm     79 % 0.0 mm 0.0 W/m2 CLR
23:00 15.0 °C 11.6 °C 1024.9 hPa Calm     80 % 0.0 mm 0.0 W/m2 CLR
23:06 15.0 °C 11.8 °C 1024.9 hPa Calm     81 % 0.0 mm 0.0 W/m2 CLR
23:11 14.4 °C 11.2 °C 1024.9 hPa Calm     81 % 0.0 mm 0.0 W/m2 CLR
23:16 15.0 °C 11.6 °C 1024.9 hPa Calm     80 % 0.0 mm 0.0 W/m2 CLR
23:21 14.4 °C 11.2 °C 1025.3 hPa Calm     81 % 0.0 mm 0.0 W/m2 CLR
23:26 14.4 °C 11.4 °C 1025.3 hPa Calm     82 % 0.0 mm 0.0 W/m2 CLR
23:31 14.4 °C 11.4 °C 1025.3 hPa Calm     82 % 0.0 mm 0.0 W/m2 CLR
23:36 14.4 °C 11.4 °C 1025.3 hPa Calm     82 % 0.0 mm 0.0 W/m2 CLR
23:41 14.4 °C 11.6 °C 1025.3 hPa Calm     83 % 0.0 mm 0.0 W/m2 CLR
23:46 15.0 °C 12.1 °C 1025.3 hPa Calm     83 % 0.0 mm 0.0 W/m2 CLR
23:56 14.4 °C 11.8 °C 1025.3 hPa Calm     84 % 0.0 mm 0.0 W/m2 CLR
Lo Temps de Massalio
Compliments of Weather Underground - 1.25 mb